Time;durP1;ratioP1;P1;durP2;ratioP2;P2;SDS_P1;SDS_P2;PMS_P1;PMS_P2;Temp;Humidity;BMP_temperature;BMP_pressure;BME280_temperature;BME280_humidity;BME280_pressure;Samples;Min_cycle;Max_cycle;Signal;HPM_P1;HPM_P2
2022/07/26 00:02:23;;;;;;;;;1.00;1.00;;;;;21.49;49.36;101369.84;6278400;22;45417;-82
2022/07/26 00:04:51;;;;;;;;;2.67;1.67;;;;;21.52;49.29;101388.50;6276115;22;45546;-82
2022/07/26 00:07:17;;;;;;;;;2.33;1.33;;;;;21.40;49.67;101387.16;6277871;22;45250;-81
2022/07/26 00:09:42;;;;;;;;;2.00;2.00;;;;;21.36;50.01;101378.34;6275929;22;45201;-81
2022/07/26 00:12:08;;;;;;;;;1.00;1.00;;;;;21.39;49.99;101392.56;6250807;22;45186;-81
2022/07/26 00:14:34;;;;;;;;;1.67;1.00;;;;;21.31;49.87;101379.44;6250279;22;45323;-81
2022/07/26 00:17:00;;;;;;;;;1.00;1.00;;;;;21.28;49.85;101376.88;6250162;22;46957;-82
2022/07/26 00:19:25;;;;;;;;;2.50;2.50;;;;;21.25;50.31;101385.00;6278360;22;45377;-82
2022/07/26 00:22:32;;;;;;;;;2.67;2.00;;;;;21.25;50.43;101385.91;6250323;22;45567;-82
2022/07/26 00:24:38;;;;;;;;;1.33;1.33;;;;;21.33;50.63;101410.59;6277318;22;45361;-82
2022/07/26 00:27:04;;;;;;;;;2.00;2.00;;;;;21.10;50.22;101368.59;6249838;22;47622;-82
2022/07/26 00:29:29;;;;;;;;;1.00;1.00;;;;;21.28;50.25;101407.22;6280598;22;45666;-81
2022/07/26 00:31:55;;;;;;;;;1.00;1.00;;;;;21.08;50.69;101378.50;6279246;22;45182;-82
2022/07/26 00:34:20;;;;;;;;;1.67;1.00;;;;;21.12;50.89;101398.00;6251099;22;45818;-82
2022/07/26 00:36:46;;;;;;;;;3.00;1.00;;;;;21.17;50.86;101408.53;6277846;22;46242;-82
2022/07/26 00:39:11;;;;;;;;;1.00;1.00;;;;;21.07;51.07;101411.56;6250479;22;45438;-82
2022/07/26 00:41:36;;;;;;;;;1.33;1.00;;;;;20.90;50.82;101379.16;6251098;22;45308;-81
2022/07/26 00:44:03;;;;;;;;;1.00;1.00;;;;;20.97;51.33;101403.91;6277688;22;45457;-81
2022/07/26 00:46:28;;;;;;;;;1.00;1.00;;;;;20.95;51.44;101403.97;6275403;22;48050;-81
2022/07/26 00:48:54;;;;;;;;;3.50;2.00;;;;;20.93;51.41;101387.13;6275398;22;45618;-81
2022/07/26 00:51:20;;;;;;;;;2.33;2.33;;;;;20.88;51.09;101389.06;6277894;22;45357;-82
2022/07/26 00:53:47;;;;;;;;;1.67;1.67;;;;;20.86;51.34;101393.59;6278196;22;45303;-82
2022/07/26 00:56:14;;;;;;;;;0.67;0.67;;;;;20.91;51.15;101405.88;6279371;22;45346;-81
2022/07/26 00:58:40;;;;;;;;;1.33;1.00;;;;;20.83;51.38;101393.72;6279143;22;45249;-82
2022/07/26 01:01:05;;;;;;;;;0.67;0.67;;;;;20.78;51.34;101401.91;6279196;22;45181;-81
2022/07/26 01:03:33;;;;;;;;;1.67;1.00;;;;;20.79;51.80;101397.41;6279190;22;45182;-82
2022/07/26 01:05:59;;;;;;;;;1.00;1.00;;;;;20.67;51.59;101380.88;6251273;22;48088;-82
2022/07/26 01:08:24;;;;;;;;;1.00;1.00;;;;;20.57;51.43;101382.13;6279799;22;45458;-82
2022/07/26 01:10:50;;;;;;;;;1.00;1.00;;;;;;;;6251881;22;45834;-82
2022/07/26 01:13:21;;;;;;;;;1.00;1.00;;;;;20.47;52.07;101370.88;6279328;22;45615;-82
2022/07/26 01:15:48;;;;;;;;;1.00;1.00;;;;;20.57;52.17;101400.84;6251127;22;47551;-82
2022/07/26 01:18:13;;;;;;;;;0.00;0.00;;;;;20.32;52.47;101362.50;6251472;22;45411;-82
2022/07/26 01:20:39;;;;;;;;;0.33;0.33;;;;;20.52;52.22;101397.44;6252237;22;45367;-82
2022/07/26 01:23:06;;;;;;;;;0.00;0.00;;;;;20.39;52.01;101383.59;6254801;22;45362;-82
2022/07/26 01:25:37;;;;;;;;;3.33;1.67;;;;;20.39;52.20;101399.66;6252277;22;47970;-82
2022/07/26 01:28:03;;;;;;;;;2.00;2.00;;;;;20.35;52.24;101383.78;6279997;22;45519;-82
2022/07/26 01:30:29;;;;;;;;;1.00;1.00;;;;;20.32;52.73;101383.88;6279343;22;45365;-82
2022/07/26 01:32:54;;;;;;;;;0.00;0.00;;;;;20.25;52.04;101375.19;6276045;22;45493;-82
2022/07/26 01:35:20;;;;;;;;;0.67;0.33;;;;;20.27;52.18;101382.22;6252029;22;47734;-82
2022/07/26 01:37:45;;;;;;;;;0.75;0.75;;;;;20.21;52.56;101376.22;6279403;22;45585;-82
2022/07/26 01:40:14;;;;;;;;;0.67;0.67;;;;;19.98;52.74;101343.09;6251351;22;45317;-82
2022/07/26 01:42:40;;;;;;;;;1.50;1.50;;;;;20.13;52.88;101370.22;6277368;22;45473;-82
2022/07/26 01:45:08;;;;;;;;;0.00;0.00;;;;;19.94;53.06;101340.56;6276649;22;48027;-82
2022/07/26 01:47:33;;;;;;;;;1.33;1.00;;;;;20.09;53.33;101371.28;6276503;22;45314;-82
2022/07/26 01:49:58;;;;;;;;;1.67;1.00;;;;;20.16;53.38;101389.75;6279635;22;45440;-82
2022/07/26 01:52:25;;;;;;;;;1.33;0.00;;;;;19.95;53.50;101353.03;6276682;22;45947;-82
2022/07/26 01:54:51;;;;;;;;;0.00;0.00;;;;;19.96;53.76;101360.97;6251304;22;48211;-83
2022/07/26 01:57:16;;;;;;;;;2.00;1.00;;;;;20.11;53.41;101393.50;6276599;22;45296;-81
2022/07/26 01:59:42;;;;;;;;;1.00;1.00;;;;;20.06;53.89;101385.63;6251710;22;45280;-82
2022/07/26 02:02:07;;;;;;;;;2.00;2.00;;;;;19.97;54.16;101377.91;6279210;22;45223;-81
2022/07/26 02:07:17;;;;;;;;;2.67;1.00;;;;;19.93;54.40;101382.47;6278532;22;45276;-81
2022/07/26 02:09:42;;;;;;;;;1.33;0.67;;;;;19.86;54.31;101369.34;6280489;22;45287;-81
2022/07/26 02:12:07;;;;;;;;;1.67;0.67;;;;;19.89;54.26;101385.28;6252561;22;45343;-81
2022/07/26 02:14:33;;;;;;;;;2.50;1.75;;;;;19.78;54.13;101366.91;6280573;22;45358;-82
2022/07/26 02:16:58;;;;;;;;;1.00;1.00;;;;;19.75;54.48;101361.69;6280773;22;45184;-82
2022/07/26 02:19:26;;;;;;;;;2.50;2.25;;;;;19.92;54.45;101387.88;6252615;22;45363;-82
2022/07/26 02:21:52;;;;;;;;;0.00;0.00;;;;;19.74;54.56;101368.81;6280734;22;45546;-82
2022/07/26 02:24:17;;;;;;;;;1.50;1.25;;;;;19.68;54.60;101363.69;6279950;22;45610;-83
2022/07/26 02:26:42;;;;;;;;;0.00;0.00;;;;;19.54;55.06;101345.41;6277095;22;45383;-82
2022/07/26 02:29:08;;;;;;;;;0.00;0.00;;;;;19.51;55.07;101350.84;6251725;22;45185;-82
2022/07/26 02:31:33;;;;;;;;;3.00;1.00;;;;;19.67;54.78;101371.72;6278727;22;45275;-82
2022/07/26 02:33:58;;;;;;;;;0.50;0.50;;;;;19.67;55.18;101383.28;6278699;22;45328;-82
2022/07/26 02:36:24;;;;;;;;;1.00;1.00;;;;;19.65;55.21;101387.78;6278769;22;45370;-82
2022/07/26 02:38:49;;;;;;;;;1.00;1.00;;;;;19.50;55.52;101362.41;6279327;22;45334;-83
2022/07/26 02:41:15;;;;;;;;;2.00;2.00;;;;;19.49;55.58;101365.16;6278928;22;45201;-82
2022/07/26 02:43:40;;;;;;;;;2.67;2.33;;;;;19.37;55.63;101348.56;6251117;22;47862;-83
2022/07/26 02:46:05;;;;;;;;;1.33;1.00;;;;;19.45;55.56;101367.03;6278599;22;45319;-83
2022/07/26 02:48:31;;;;;;;;;2.00;1.33;;;;;19.42;55.95;101364.47;6276531;22;45370;-82
2022/07/26 02:50:56;;;;;;;;;1.33;1.33;;;;;19.48;55.94;101387.44;6278957;22;45358;-82
2022/07/26 02:53:21;;;;;;;;;1.00;1.00;;;;;19.43;55.81;101386.69;6250726;22;47695;-82
2022/07/26 02:55:47;;;;;;;;;1.33;0.67;;;;;19.39;56.27;101377.91;6279530;22;45374;-82
2022/07/26 02:58:12;;;;;;;;;1.50;1.50;;;;;19.31;56.33;101366.59;6251403;22;45332;-82
2022/07/26 03:00:37;;;;;;;;;2.00;1.00;;;;;19.49;56.48;101398.06;6278757;22;45256;-82
2022/07/26 03:03:03;;;;;;;;;0.75;0.75;;;;;19.36;56.37;101373.53;6278412;22;45377;-82
2022/07/26 03:05:28;;;;;;;;;1.00;1.00;;;;;19.25;56.38;101367.66;6251312;22;45992;-82
2022/07/26 03:07:53;;;;;;;;;1.25;0.00;;;;;19.32;56.57;101379.88;6252026;22;45323;-83
2022/07/26 03:10:19;;;;;;;;;1.00;1.00;;;;;19.38;56.86;101390.38;6280800;22;45369;-82
2022/07/26 03:12:45;;;;;;;;;1.00;1.00;;;;;19.38;56.83;101398.41;6251327;22;48129;-82
2022/07/26 03:15:10;;;;;;;;;2.00;2.00;;;;;19.29;56.90;101395.97;6278854;22;45280;-82
2022/07/26 03:17:36;;;;;;;;;1.75;1.75;;;;;19.42;57.00;101417.88;6276417;22;45181;-82
2022/07/26 03:20:01;;;;;;;;;2.33;2.33;;;;;19.14;57.29;101359.94;6278878;22;45164;-82
2022/07/26 03:22:27;;;;;;;;;3.00;2.00;;;;;19.21;57.39;101368.63;6250059;22;47919;-82
2022/07/26 03:24:52;;;;;;;;;1.50;1.50;;;;;19.07;57.13;101346.81;6279076;22;45193;-82
2022/07/26 03:27:18;;;;;;;;;1.00;1.00;;;;;19.27;57.42;101381.84;6278963;22;45461;-82
2022/07/26 03:29:43;;;;;;;;;2.00;1.00;;;;;19.40;57.51;101406.34;6276183;22;45452;-82
2022/07/26 03:32:08;;;;;;;;;1.00;1.00;;;;;19.27;57.45;101375.59;6250336;22;47218;-82
2022/07/26 03:34:34;;;;;;;;;1.50;1.50;;;;;19.40;57.53;101406.34;6276277;22;45351;-82
2022/07/26 03:37:00;;;;;;;;;2.00;2.00;;;;;19.23;57.68;101364.13;6277384;22;45359;-82
2022/07/26 03:39:25;;;;;;;;;3.00;2.00;;;;;19.29;57.48;101376.44;6278429;22;45393;-81
2022/07/26 03:41:50;;;;;;;;;2.50;1.25;;;;;19.43;57.55;101406.25;6250491;22;47203;-81
2022/07/26 03:44:16;;;;;;;;;1.00;1.00;;;;;19.30;57.84;101381.72;6278093;22;45315;-80
2022/07/26 03:46:41;;;;;;;;;1.50;1.50;;;;;19.49;57.50;101416.78;6250440;22;45362;-80
2022/07/26 03:49:07;;;;;;;;;0.75;0.75;;;;;19.49;57.70;101421.25;6278405;22;45358;-81
2022/07/26 03:51:32;;;;;;;;;1.00;1.00;;;;;19.25;57.85;101389.00;6249832;22;46779;-81
2022/07/26 03:53:58;;;;;;;;;3.00;1.50;;;;;19.31;57.64;101401.28;6250375;22;45279;-80
2022/07/26 03:56:33;;;;;;;;;1.00;1.00;;;;;19.44;58.45;101423.19;6250974;22;45198;-81
2022/07/26 03:59:00;;;;;;;;;2.00;1.00;;;;;19.42;57.83;101422.34;6250239;22;45986;-81
2022/07/26 04:01:27;;;;;;;;;3.50;2.00;;;;;19.26;58.18;101390.75;6249323;22;47944;-81
2022/07/26 04:03:52;;;;;;;;;2.00;1.00;;;;;19.42;57.98;101417.00;6278782;22;45184;-81
2022/07/26 04:06:17;;;;;;;;;3.00;1.25;;;;;19.26;58.39;101388.06;6250163;22;45158;-81
2022/07/26 04:08:43;;;;;;;;;2.00;2.00;;;;;19.33;58.37;101394.13;6250255;22;45375;-81
2022/07/26 04:11:08;;;;;;;;;2.25;2.25;;;;;19.38;57.91;101408.22;6250302;22;47037;-80
2022/07/26 04:13:35;;;;;;;;;3.00;3.00;;;;;19.42;58.55;101414.31;6278346;22;45394;-81
2022/07/26 04:16:01;;;;;;;;;3.25;1.50;;;;;19.41;57.92;101412.59;6250659;22;45292;-81
2022/07/26 04:18:26;;;;;;;;;2.00;2.00;;;;;19.42;58.30;101414.31;6278168;22;45362;-80
2022/07/26 04:20:51;;;;;;;;;5.25;3.00;;;;;19.42;58.29;101407.19;6249985;22;48053;-80
2022/07/26 04:23:17;;;;;;;;;3.00;3.00;;;;;19.52;58.21;101411.34;6277856;22;45231;-80
2022/07/26 04:25:43;;;;;;;;;0.67;0.67;;;;;19.63;59.07;101429.69;6250473;22;45311;-81
2022/07/26 04:28:09;;;;;;;;;2.75;2.75;;;;;19.60;58.51;101416.44;6250285;22;45520;-80
2022/07/26 04:30:35;;;;;;;;;2.33;1.00;;;;;19.57;58.27;101408.53;6279397;22;45987;-81
2022/07/26 04:33:01;;;;;;;;;4.25;2.00;;;;;19.69;58.18;101423.31;6278914;22;45181;-81
2022/07/26 04:35:26;;;;;;;;;2.00;2.00;;;;;19.73;58.41;101435.69;6251690;22;45212;-80
2022/07/26 04:37:51;;;;;;;;;2.00;1.75;;;;;19.73;58.30;101441.91;6279432;22;45775;-81
2022/07/26 04:40:19;;;;;;;;;3.00;2.50;;;;;19.70;58.56;101425.06;6251343;22;46898;-80
2022/07/26 04:42:45;;;;;;;;;1.75;1.25;;;;;19.61;58.32;101407.50;6277411;22;45365;-81
2022/07/26 04:45:14;;;;;;;;;3.00;3.00;;;;;19.69;58.37;101423.31;6251371;22;45260;-80
2022/07/26 04:47:41;;;;;;;;;2.50;0.50;;;;;19.70;58.53;101427.75;6275443;22;45450;-81
2022/07/26 04:50:07;;;;;;;;;1.50;1.25;;;;;19.81;58.39;101430.97;6251571;22;47575;-81
2022/07/26 04:52:32;;;;;;;;;3.00;3.00;;;;;19.66;58.55;101407.38;6251189;22;45204;-80
2022/07/26 04:54:57;;;;;;;;;1.67;1.67;;;;;19.90;58.32;101441.38;6279673;22;45175;-80
2022/07/26 04:57:23;;;;;;;;;2.00;2.00;;;;;19.87;58.68;101438.78;6252051;22;45435;-80
2022/07/26 04:59:48;;;;;;;;;3.33;3.00;;;;;19.82;58.45;101432.72;6279420;22;45330;-80
2022/07/26 05:02:14;;;;;;;;;1.67;1.67;;;;;19.87;58.30;101435.25;6279371;22;45300;-80
2022/07/26 05:04:41;;;;;;;;;2.00;1.33;;;;;20.04;58.58;101454.28;6276771;22;45347;-80
2022/07/26 05:07:07;;;;;;;;;6.00;4.00;;;;;19.96;58.56;101443.84;6250977;22;45472;-80
2022/07/26 05:09:32;;;;;;;;;0.50;0.50;;;;;20.12;58.27;101459.41;6279367;22;45408;-80
2022/07/26 05:11:57;;;;;;;;;1.50;1.50;;;;;19.99;58.55;101442.88;6277383;22;45749;-80
2022/07/26 05:14:23;;;;;;;;;2.50;1.50;;;;;20.04;58.28;101452.50;6279576;22;45339;-80
2022/07/26 05:16:48;;;;;;;;;2.25;1.25;;;;;20.03;58.32;101444.53;6279188;22;45287;-80
2022/07/26 05:19:13;;;;;;;;;2.67;1.67;;;;;20.09;58.12;101456.81;6278858;22;46002;-80
2022/07/26 05:21:39;;;;;;;;;2.67;1.67;;;;;20.15;58.14;101470.84;6279146;22;45235;-80
2022/07/26 05:24:05;;;;;;;;;2.50;2.50;;;;;20.15;57.96;101468.19;6251456;22;45154;-80
2022/07/26 05:26:31;;;;;;;;;5.00;1.50;;;;;20.10;58.59;101453.22;6251634;22;45523;-83
2022/07/26 05:28:57;;;;;;;;;2.33;2.33;;;;;20.02;58.45;101442.75;6251308;22;46658;-82
2022/07/26 05:31:23;;;;;;;;;4.00;4.00;;;;;20.17;58.12;101465.47;6251061;22;45194;-84
2022/07/26 05:33:48;;;;;;;;;3.00;2.00;;;;;20.22;58.38;101472.41;6279268;22;45371;-83
2022/07/26 05:36:14;;;;;;;;;2.33;1.33;;;;;20.01;58.10;101439.22;6251210;22;45354;-83
2022/07/26 05:38:39;;;;;;;;;2.00;2.00;;;;;20.15;58.40;101465.50;6279049;22;45436;-83
2022/07/26 05:41:07;;;;;;;;;2.25;2.00;;;;;20.23;58.38;101479.53;6278521;22;45256;-83
2022/07/26 05:43:33;;;;;;;;;4.25;3.50;;;;;20.03;58.37;101448.06;6251120;22;45334;-83
2022/07/26 05:45:58;;;;;;;;;1.25;1.25;;;;;20.11;58.67;101460.34;6279260;22;45306;-84
2022/07/26 05:48:24;;;;;;;;;1.50;1.50;;;;;20.02;58.25;101443.66;6251306;22;46962;-84
2022/07/26 05:50:58;;;;;;;;;4.00;2.00;;;;;20.25;58.52;101482.16;6251513;22;45207;-85
2022/07/26 05:53:36;;;;;;;;;;;;;;;;;;;;;
2022/07/26 05:59:09;;;;;;;;;4.75;3.00;;;;;20.23;58.50;101482.22;6211542;22;45491;-82
2022/07/26 06:01:34;;;;;;;;;3.75;3.00;;;;;20.11;58.25;101452.31;6250842;22;45280;-83
2022/07/26 06:04:00;;;;;;;;;2.75;1.50;;;;;20.26;58.57;101486.56;6278733;22;45314;-84
2022/07/26 06:06:29;;;;;;;;;4.00;1.33;;;;;20.15;58.06;101470.84;6279178;22;45422;-83
2022/07/26 06:08:55;;;;;;;;;1.33;1.33;;;;;20.11;58.01;101479.03;6278194;22;46106;-81
2022/07/26 06:11:20;;;;;;;;;3.67;3.67;;;;;20.08;58.37;101476.47;6278410;22;45204;-84
2022/07/26 06:13:46;;;;;;;;;3.00;2.00;;;;;19.98;58.65;101465.19;6250777;22;45216;-82
2022/07/26 06:16:12;;;;;;;;;4.67;3.67;;;;;20.01;58.68;101479.31;6276549;22;46009;-81
2022/07/26 06:18:38;;;;;;;;;4.25;4.25;;;;;20.11;58.45;101485.25;6277939;22;45168;-83
2022/07/26 06:21:03;;;;;;;;;3.75;3.25;;;;;20.05;58.43;101470.28;6251273;22;45771;-82
2022/07/26 06:23:29;;;;;;;;;3.50;2.50;;;;;20.16;58.44;101483.31;6250410;22;45394;-84
2022/07/26 06:25:54;;;;;;;;;2.00;1.00;;;;;20.14;58.89;101476.28;6250612;22;45428;-82
2022/07/26 06:28:20;;;;;;;;;2.67;2.00;;;;;20.17;58.22;101479.72;6250918;22;47033;-82
2022/07/26 06:30:45;;;;;;;;;4.25;2.00;;;;;20.27;58.77;101494.53;6250691;22;45515;-81
2022/07/26 06:33:10;;;;;;;;;2.00;1.25;;;;;20.12;58.17;101460.25;6278789;22;45235;-81
2022/07/26 06:35:38;;;;;;;;;5.33;2.00;;;;;20.30;58.66;101496.25;6279203;22;45540;-82
2022/07/26 06:38:05;;;;;;;;;3.00;3.00;;;;;20.37;58.50;101507.59;6276787;22;46151;-82
2022/07/26 06:40:31;;;;;;;;;2.00;2.00;;;;;20.37;58.09;101511.19;6251450;22;45172;-92
2022/07/26 06:42:58;;;;;;;;;3.00;3.00;;;;;20.36;58.31;101509.41;6251690;22;45294;-87
2022/07/26 06:45:27;;;;;;;;;3.25;2.25;;;;;20.34;58.60;101513.97;6251207;22;45606;-85
2022/07/26 06:47:53;;;;;;;;;3.75;2.75;;;;;20.26;58.25;101486.56;6246436;22;47311;-84
2022/07/26 06:50:19;;;;;;;;;4.75;3.25;;;;;20.22;58.37;101487.59;6248796;22;45461;-83
2022/07/26 06:52:44;;;;;;;;;4.50;3.75;;;;;20.18;58.84;101473.47;6245524;22;45192;-82
2022/07/26 06:55:11;;;;;;;;;6.00;3.00;;;;;20.43;58.64;101518.13;6247938;22;45086;-84
2022/07/26 06:57:40;;;;;;;;;3.00;3.00;;;;;20.45;58.74;101513.63;6220040;22;48410;-82
2022/07/26 07:00:07;;;;;;;;;2.50;2.50;;;;;20.42;58.69;101493.19;6220114;22;45327;-82
2022/07/26 07:02:32;;;;;;;;;4.00;4.00;;;;;20.55;58.83;101511.53;6244112;22;45368;-82
2022/07/26 07:04:57;;;;;;;;;1.67;1.67;;;;;20.65;58.32;101518.31;6242710;22;45524;-81
2022/07/26 07:07:23;;;;;;;;;4.00;3.25;;;;;20.55;58.33;101496.34;6216188;22;48348;-82
2022/07/26 07:09:48;;;;;;;;;6.50;4.25;;;;;20.69;58.16;101517.31;6243441;22;45648;-82
2022/07/26 07:12:14;;;;;;;;;4.00;3.00;;;;;20.55;58.27;101492.78;6245538;22;45243;-82
2022/07/26 07:14:40;;;;;;;;;3.67;3.67;;;;;20.64;58.14;101506.75;6247641;22;45181;-81
2022/07/26 07:17:06;;;;;;;;;3.00;3.00;;;;;20.65;58.00;101507.63;6219536;22;46988;-82
2022/07/26 07:19:35;;;;;;;;;1.75;1.75;;;;;20.78;57.81;101522.34;6245184;22;45258;-82
2022/07/26 07:22:00;;;;;;;;;3.00;3.00;;;;;20.63;57.63;101496.97;6247443;22;45165;-82
2022/07/26 07:24:26;;;;;;;;;2.00;2.00;;;;;20.86;57.54;101520.28;6219713;22;45284;-82
2022/07/26 07:26:51;;;;;;;;;1.67;1.67;;;;;20.81;57.71;101506.19;6247419;22;46013;-81
2022/07/26 07:29:19;;;;;;;;;2.50;2.50;;;;;20.97;57.48;101524.41;6220074;22;45416;-82
2022/07/26 07:31:47;;;;;;;;;2.00;2.00;;;;;20.89;57.50;101503.25;6245371;22;45268;-81
2022/07/26 07:34:14;;;;;;;;;1.67;1.67;;;;;21.08;57.59;101527.56;6247617;22;45166;-81
2022/07/26 07:36:40;;;;;;;;;3.00;3.00;;;;;21.17;57.06;101524.59;6219988;22;47910;-82
2022/07/26 07:39:05;;;;;;;;;2.67;2.67;;;;;21.21;56.87;101514.63;6248201;22;45347;-81
2022/07/26 07:41:33;;;;;;;;;2.00;1.67;;;;;21.15;56.52;101496.97;6221364;22;45398;-82
2022/07/26 07:43:59;;;;;;;;;4.33;3.00;;;;;21.19;56.76;101512.00;6220183;22;45582;-82
2022/07/26 07:46:25;;;;;;;;;4.50;3.75;;;;;21.24;57.02;101510.03;6219403;22;47379;-82
2022/07/26 07:48:50;;;;;;;;;2.00;2.00;;;;;21.34;56.50;101526.66;6275771;22;45157;-82
2022/07/26 07:51:16;;;;;;;;;2.00;2.00;;;;;21.22;56.44;101489.59;6278092;22;45238;-82
2022/07/26 07:53:42;;;;;;;;;4.00;3.00;;;;;21.26;56.03;101505.50;6248784;22;45543;-82
2022/07/26 07:56:07;;;;;;;;;3.00;3.00;;;;;21.41;56.26;101528.22;6250206;22;48107;-82
2022/07/26 07:58:35;;;;;;;;;4.67;4.00;;;;;21.34;56.33;101521.28;6278688;22;45176;-83
2022/07/26 08:01:01;;;;;;;;;4.33;4.00;;;;;21.40;56.16;101526.44;6278997;22;45317;-82
2022/07/26 08:03:26;;;;;;;;;4.00;3.33;;;;;21.32;55.97;101505.25;6277698;22;45255;-82
2022/07/26 08:05:52;;;;;;;;;3.00;3.00;;;;;21.44;55.88;101513.81;6250703;22;46379;-82
2022/07/26 08:08:18;;;;;;;;;5.75;3.25;;;;;21.51;56.10;101518.03;6277036;22;45375;-82
2022/07/26 08:10:44;;;;;;;;;2.75;2.00;;;;;21.59;55.66;101524.84;6251224;22;45240;-82
2022/07/26 08:13:10;;;;;;;;;3.33;2.67;;;;;21.68;55.68;101523.63;6251467;22;45543;-82
2022/07/26 08:15:35;;;;;;;;;4.00;4.00;;;;;21.66;55.21;101519.28;6279018;22;45164;-82
2022/07/26 08:18:01;;;;;;;;;1.67;1.33;;;;;21.67;55.38;101519.19;6279282;22;45230;-82
2022/07/26 08:20:26;;;;;;;;;3.00;1.67;;;;;21.68;54.73;101507.56;6251617;22;45246;-82
2022/07/26 08:22:52;;;;;;;;;1.67;1.67;;;;;21.80;54.74;101524.97;6251559;22;45592;-82
2022/07/26 08:25:18;;;;;;;;;3.75;3.75;;;;;21.76;54.38;101521.53;6251200;22;47365;-82
2022/07/26 08:27:44;;;;;;;;;1.67;1.67;;;;;21.95;54.00;101551.19;6251587;22;45426;-82
2022/07/26 08:30:10;;;;;;;;;2.67;2.67;;;;;21.84;54.34;101526.63;6252021;22;45346;-83
2022/07/26 08:32:35;;;;;;;;;3.33;2.33;;;;;21.89;54.37;101524.63;6279193;22;45487;-82
2022/07/26 08:35:01;;;;;;;;;3.00;3.00;;;;;21.99;53.87;101536.72;6278813;22;46001;-82
2022/07/26 08:37:26;;;;;;;;;3.00;3.00;;;;;22.02;54.18;101541.09;6250532;22;45306;-81
2022/07/26 08:39:52;;;;;;;;;3.33;3.00;;;;;22.03;54.06;101549.09;6278880;22;45240;-82
2022/07/26 08:42:21;;;;;;;;;4.00;3.00;;;;;22.07;53.68;101557.88;6277228;22;45450;-82
2022/07/26 08:44:47;;;;;;;;;2.67;2.00;;;;;21.96;53.65;101539.53;6278692;22;45324;-82
2022/07/26 08:47:14;;;;;;;;;3.00;3.00;;;;;22.06;53.81;101552.59;6278306;22;45190;-82
2022/07/26 08:49:43;;;;;;;;;2.00;2.00;;;;;21.95;53.77;101543.16;6278890;22;45198;-82
2022/07/26 08:52:11;;;;;;;;;3.00;3.00;;;;;21.91;53.79;101527.25;6278289;22;45087;-82
2022/07/26 08:54:42;;;;;;;;;3.33;3.33;;;;;21.87;53.80;101537.22;6250489;22;46879;-83
2022/07/26 08:57:08;;;;;;;;;4.00;4.00;;;;;21.87;54.19;101533.66;6276038;22;45366;-81
2022/07/26 08:59:33;;;;;;;;;3.00;3.00;;;;;21.90;53.85;101534.41;6250665;22;45296;-82
2022/07/26 09:02:04;;;;;;;;;5.00;3.33;;;;;21.98;53.70;101558.25;6276565;22;45463;-81
2022/07/26 09:04:38;;;;;;;;;4.00;3.67;;;;;21.93;53.62;101534.28;6278259;22;46323;-81
2022/07/26 09:07:06;;;;;;;;;4.00;3.00;;;;;22.04;53.76;101558.00;6278939;22;45152;-82
2022/07/26 09:09:34;;;;;;;;;3.00;3.00;;;;;22.10;53.72;101562.25;6278981;22;45362;-81
2022/07/26 09:12:16;;;;;;;;;3.67;3.00;;;;;22.06;53.70;101553.47;6250998;22;45790;-81
2022/07/26 09:14:41;;;;;;;;;3.33;3.00;;;;;22.17;53.62;101553.91;6250466;22;47920;-82
2022/07/26 09:17:07;;;;;;;;;2.33;2.33;;;;;22.16;53.35;101548.59;6278144;22;45372;-82
2022/07/26 09:19:35;;;;;;;;;4.75;4.75;;;;;22.33;53.06;101573.00;6250675;22;45328;-82
2022/07/26 09:22:14;;;;;;;;;3.67;3.00;;;;;22.22;52.96;101543.91;6250244;22;46044;-82
2022/07/26 09:24:45;;;;;;;;;4.50;3.25;;;;;22.28;52.78;101544.63;6250549;22;47236;-82
2022/07/26 09:27:13;;;;;;;;;3.33;3.33;;;;;22.31;52.64;101542.66;6250820;22;45219;-81
2022/07/26 09:29:52;;;;;;;;;2.00;2.00;;;;;22.48;52.39;101576.91;6251179;22;45316;-81
2022/07/26 09:32:20;;;;;;;;;3.33;3.00;;;;;22.50;52.04;101566.09;6250581;22;45377;-82
2022/07/26 09:34:49;;;;;;;;;3.00;2.00;;;;;22.52;52.34;101551.66;6277955;22;45273;-81
2022/07/26 09:37:15;;;;;;;;;4.67;3.00;;;;;22.70;51.77;101563.47;6249940;22;45555;-82
2022/07/26 09:39:58;;;;;;;;;2.00;2.00;;;;;22.87;51.04;101565.44;6250935;22;45384;-82
2022/07/26 09:42:25;;;;;;;;;2.67;2.33;;;;;22.80;50.62;101550.53;6250591;22;45529;-82
2022/07/26 09:44:51;;;;;;;;;3.67;3.67;;;;;23.02;49.75;101572.91;6250750;22;47225;-82
2022/07/26 09:47:16;;;;;;;;;2.00;2.00;;;;;23.10;49.63;101565.38;6274907;22;45410;-82
2022/07/26 09:49:42;;;;;;;;;4.00;3.33;;;;;23.30;49.07;101567.19;6250823;22;45241;-82
2022/07/26 09:52:19;;;;;;;;;2.67;2.00;;;;;23.42;48.43;101564.94;6276065;22;45544;-82
2022/07/26 09:54:48;;;;;;;;;1.33;1.33;;;;;23.56;48.96;101552.59;6250094;22;47392;-81
2022/07/26 09:57:15;;;;;;;;;0.67;0.67;;;;;23.87;48.35;101571.88;6250708;22;45225;-82
2022/07/26 09:59:41;;;;;;;;;2.00;2.00;;;;;23.88;47.50;101568.25;6278568;22;45295;-82
2022/07/26 10:02:06;;;;;;;;;1.33;1.33;;;;;24.06;47.49;101577.25;6278196;22;45258;-82
2022/07/26 10:04:32;;;;;;;;;3.00;3.00;;;;;24.20;46.75;101578.38;6278126;22;46335;-81
2022/07/26 10:06:57;;;;;;;;;2.00;1.33;;;;;24.27;46.15;101567.31;6250863;22;45377;-81
2022/07/26 10:09:24;;;;;;;;;4.33;3.00;;;;;24.36;46.17;101564.19;6278361;22;45473;-81
2022/07/26 10:11:55;;;;;;;;;2.00;2.00;;;;;24.46;45.85;101556.53;6250376;22;45362;-81
2022/07/26 10:14:43;;;;;;;;;1.00;1.00;;;;;24.55;44.86;101567.75;6277845;22;46411;-82
2022/07/26 10:17:30;;;;;;;;;2.00;1.00;;;;;24.66;44.38;101575.31;6278183;22;45255;-82
2022/07/26 10:20:02;;;;;;;;;1.67;1.00;;;;;24.61;44.36;101556.66;6250389;22;45178;-82
2022/07/26 10:22:33;;;;;;;;;2.67;2.33;;;;;24.69;43.66;101572.44;6249929;22;45197;-81
2022/07/26 10:25:16;;;;;;;;;3.00;3.00;;;;;24.78;43.58;101571.09;6277626;22;45429;-81
2022/07/26 10:27:45;;;;;;;;;2.00;2.00;;;;;24.85;43.51;101572.56;6275864;22;45241;-82
2022/07/26 10:30:22;;;;;;;;;1.67;1.67;;;;;24.96;43.28;101572.88;6279253;22;45401;-82
2022/07/26 10:33:01;;;;;;;;;3.00;2.00;;;;;25.14;43.18;101578.28;6275885;22;45310;-82
2022/07/26 10:35:40;;;;;;;;;3.33;2.33;;;;;25.30;42.36;101581.97;6249701;22;46838;-82
2022/07/26 10:38:08;;;;;;;;;1.00;1.00;;;;;25.38;42.56;101578.88;6277739;22;45263;-82
2022/07/26 10:40:54;;;;;;;;;1.33;1.33;;;;;25.38;41.74;101578.88;6278334;22;45253;-82
2022/07/26 10:43:20;;;;;;;;;2.00;2.00;;;;;25.37;41.43;101566.31;6277419;22;45109;-82
2022/07/26 10:45:45;;;;;;;;;2.67;2.67;;;;;25.40;41.44;101563.50;6248814;22;47208;-82
2022/07/26 10:48:19;;;;;;;;;1.33;1.33;;;;;25.48;41.75;101564.81;6249375;22;45281;-82
2022/07/26 10:50:52;;;;;;;;;2.00;2.00;;;;;25.58;41.00;101565.22;6250261;22;45205;-82
2022/07/26 10:53:26;;;;;;;;;3.00;2.33;;;;;25.69;41.01;101573.59;6249577;22;45371;-82
2022/07/26 10:55:56;;;;;;;;;1.00;1.00;;;;;25.79;40.67;101562.28;6249388;22;47449;-82
2022/07/26 10:58:24;;;;;;;;;3.00;2.00;;;;;25.93;40.34;101568.72;6249305;22;45146;-82
2022/07/26 11:01:07;;;;;;;;;1.00;1.00;;;;;26.07;39.85;101572.50;6275959;22;45257;-83
2022/07/26 11:03:41;;;;;;;;;0.67;0.67;;;;;26.01;39.66;101570.09;6277995;22;45208;-82
2022/07/26 11:06:15;;;;;;;;;2.00;2.00;;;;;26.05;39.21;101577.97;6275751;22;48031;-82
2022/07/26 11:08:42;;;;;;;;;3.00;1.00;;;;;25.91;39.26;101567.94;6277652;22;45283;-82
2022/07/26 11:11:08;;;;;;;;;2.00;1.00;;;;;25.80;38.69;101578.41;6278922;22;45144;-82
2022/07/26 11:13:35;;;;;;;;;2.33;2.33;;;;;25.62;39.00;101574.88;6251839;22;45433;-82
2022/07/26 11:16:03;;;;;;;;;5.00;5.00;;;;;25.47;38.54;101576.59;6249925;22;48305;-82
2022/07/26 11:18:31;;;;;;;;;4.00;4.00;;;;;25.25;39.46;101566.03;6249405;22;45510;-82
2022/07/26 11:21:16;;;;;;;;;3.00;3.00;;;;;25.08;39.60;101574.97;6278222;22;45174;-82
2022/07/26 11:23:46;;;;;;;;;1.33;1.00;;;;;24.84;40.01;101574.38;6249551;22;45284;-82
2022/07/26 11:26:21;;;;;;;;;2.00;1.00;;;;;24.69;40.26;101577.84;6278323;22;46794;-82
2022/07/26 11:29:03;;;;;;;;;2.00;2.00;;;;;24.45;39.94;101576.34;6249607;22;45555;-82
2022/07/26 11:31:44;;;;;;;;;1.00;1.00;;;;;24.18;40.47;101563.25;6248692;22;45248;-82
2022/07/26 11:34:22;;;;;;;;;2.00;2.00;;;;;24.13;41.27;101576.03;6249671;22;45203;-82